createdAt,value
2024-03-03T00:02:15.392Z,83.60
2024-03-03T00:05:17.475Z,83.14
2024-03-03T00:08:19.093Z,82.76
2024-03-03T00:11:20.860Z,81.82
2024-03-03T00:14:22.570Z,81.58
2024-03-03T00:17:24.230Z,81.47
2024-03-03T00:20:26.196Z,81.30
2024-03-03T00:23:28.304Z,81.52
2024-03-03T00:26:32.068Z,81.73
2024-03-03T00:29:33.780Z,82.62
2024-03-03T00:32:35.572Z,83.08
2024-03-03T00:35:37.320Z,83.24
2024-03-03T00:38:38.994Z,82.02
2024-03-03T00:41:40.683Z,83.60
2024-03-03T00:44:42.379Z,82.97
2024-03-03T00:47:45.490Z,82.71
2024-03-03T00:50:47.303Z,82.46
2024-03-03T00:53:49.096Z,81.76
2024-03-03T00:56:50.819Z,81.69
2024-03-03T00:59:52.496Z,81.62
2024-03-03T01:02:54.522Z,81.66
2024-03-03T01:05:56.468Z,82.19
2024-03-03T01:08:58.458Z,83.34
2024-03-03T01:12:00.147Z,83.81
2024-03-03T01:15:01.861Z,83.97
2024-03-03T01:18:04.046Z,83.65
2024-03-03T01:21:05.763Z,83.71
2024-03-03T01:24:08.713Z,83.78
2024-03-03T01:27:10.479Z,82.19
2024-03-03T01:30:12.157Z,83.52
2024-03-03T01:33:13.849Z,83.90
2024-03-03T01:36:15.697Z,83.16
2024-03-03T01:39:17.429Z,82.84
2024-03-03T01:42:19.144Z,82.45
2024-03-03T01:45:25.305Z,82.58
2024-03-03T01:48:27.101Z,82.04
2024-03-03T01:51:30.588Z,80.60
2024-03-03T01:54:36.366Z,82.37
2024-03-03T01:57:38.233Z,81.75
2024-03-03T02:00:40.288Z,82.14
2024-03-03T02:03:43.789Z,82.16
2024-03-03T02:06:47.623Z,84.13
2024-03-03T02:09:50.058Z,84.02
2024-03-03T02:12:52.589Z,84.42
2024-03-03T02:15:55.231Z,83.44
2024-03-03T02:18:57.196Z,83.88
2024-03-03T02:21:59.003Z,84.56
2024-03-03T02:25:00.763Z,84.39
2024-03-03T02:28:03.235Z,84.75
2024-03-03T02:31:05.155Z,84.28
2024-03-03T02:34:06.935Z,83.20
2024-03-03T02:37:08.629Z,83.14
2024-03-03T02:40:10.802Z,82.79
2024-03-03T02:43:12.605Z,82.47
2024-03-03T02:46:14.886Z,82.72
2024-03-03T02:49:16.970Z,83.30
2024-03-03T02:52:18.998Z,81.16
2024-03-03T02:55:20.805Z,82.85
2024-03-03T02:58:23.541Z,82.49
2024-03-03T03:01:25.403Z,82.36
2024-03-03T03:04:27.261Z,81.93
2024-03-03T03:07:28.958Z,81.39
2024-03-03T03:10:30.715Z,82.32
2024-03-03T03:13:32.663Z,82.58
2024-03-03T03:16:34.357Z,82.34
2024-03-03T03:19:36.062Z,82.10
2024-03-03T03:22:37.715Z,81.43
2024-03-03T03:25:39.408Z,82.95
2024-03-03T03:28:42.681Z,84.06
2024-03-03T03:31:45.044Z,82.69
2024-03-03T03:34:46.947Z,83.19
2024-03-03T03:37:48.763Z,83.77
2024-03-03T03:40:50.517Z,83.10
2024-03-03T03:43:52.521Z,83.37
2024-03-03T03:46:54.204Z,82.64
2024-03-03T03:49:55.958Z,82.16
2024-03-03T03:52:57.646Z,82.52
2024-03-03T03:55:59.292Z,81.90
2024-03-03T03:59:01.391Z,82.28
2024-03-03T04:02:05.266Z,82.32
2024-03-03T04:05:07.396Z,82.29
2024-03-03T04:08:09.212Z,82.49
2024-03-03T04:11:10.905Z,82.48
2024-03-03T04:14:12.606Z,82.34
2024-03-03T04:17:14.342Z,82.29
2024-03-03T04:20:16.830Z,81.97
2024-03-03T04:23:18.612Z,83.86
2024-03-03T04:26:20.248Z,83.84
2024-03-03T04:29:21.936Z,82.52
2024-03-03T04:32:23.783Z,82.00
2024-03-03T04:35:25.533Z,81.98
2024-03-03T04:38:27.283Z,82.24
2024-03-03T04:41:32.262Z,81.15
2024-03-03T04:44:33.961Z,84.24
2024-03-03T04:47:35.989Z,84.30
2024-03-03T04:50:37.671Z,84.19
2024-03-03T04:53:41.155Z,83.07
2024-03-03T04:56:42.863Z,83.20
2024-03-03T04:59:44.588Z,83.85
2024-03-03T05:02:46.251Z,85.36
2024-03-03T05:05:47.924Z,86.31
2024-03-03T05:08:49.981Z,86.13
2024-03-03T05:11:51.713Z,86.68
2024-03-03T05:14:53.435Z,86.38
2024-03-03T05:17:55.282Z,86.93
2024-03-03T05:20:57.043Z,86.64
2024-03-03T05:23:58.734Z,86.77
2024-03-03T05:27:00.589Z,87.04
2024-03-03T05:30:02.300Z,86.81
2024-03-03T05:33:05.953Z,86.83
2024-03-03T05:36:07.849Z,86.75
2024-03-03T05:39:13.619Z,86.71
2024-03-03T05:42:15.264Z,86.34
2024-03-03T05:45:17.165Z,86.28
2024-03-03T05:48:18.869Z,86.39
2024-03-03T05:51:20.510Z,86.37
2024-03-03T05:54:22.325Z,86.05
2024-03-03T05:57:24.011Z,86.25
2024-03-03T06:00:25.755Z,85.97
2024-03-03T06:03:27.435Z,85.56
2024-03-03T06:06:29.110Z,85.32
2024-03-03T06:09:31.318Z,85.74
2024-03-03T06:12:33.038Z,86.09
2024-03-03T06:15:34.723Z,86.15
2024-03-03T06:18:36.436Z,86.17
2024-03-03T06:21:38.080Z,85.63
2024-03-03T06:24:39.742Z,85.77
2024-03-03T06:27:41.495Z,85.77
2024-03-03T06:30:44.132Z,86.40
2024-03-03T06:33:45.954Z,86.77
2024-03-03T06:36:47.693Z,86.97
2024-03-03T06:39:50.074Z,86.47
2024-03-03T06:42:51.853Z,86.54
2024-03-03T06:45:53.569Z,86.47
2024-03-03T06:48:55.363Z,86.22
2024-03-03T06:51:57.066Z,86.41
2024-03-03T06:54:59.853Z,86.34
2024-03-03T06:58:01.623Z,86.13
2024-03-03T07:01:03.534Z,86.31
2024-03-03T07:04:20.503Z,86.57
2024-03-03T07:07:22.309Z,86.46
2024-03-03T07:10:24.139Z,86.62
2024-03-03T07:13:25.829Z,86.12
2024-03-03T07:16:27.866Z,85.94
2024-03-03T07:19:29.609Z,86.23
2024-03-03T07:22:35.616Z,86.45
2024-03-03T07:25:37.397Z,86.88
2024-03-03T07:28:39.034Z,86.56
2024-03-03T07:31:40.662Z,86.88
2024-03-03T07:34:48.490Z,86.02
2024-03-03T07:37:50.139Z,86.19
2024-03-03T07:40:51.862Z,85.52
2024-03-03T07:43:53.570Z,85.74
2024-03-03T07:46:55.278Z,86.34
2024-03-03T07:49:56.912Z,86.98
2024-03-03T07:52:58.856Z,86.43
2024-03-03T07:56:04.095Z,86.41
2024-03-03T07:59:07.004Z,86.41
2024-03-03T08:02:08.799Z,85.82
2024-03-03T08:05:11.019Z,84.88
2024-03-03T08:08:12.733Z,84.79
2024-03-03T08:11:14.515Z,84.06
2024-03-03T08:14:16.470Z,84.61
2024-03-03T08:17:18.195Z,84.39
2024-03-03T08:20:21.019Z,84.43
2024-03-03T08:23:22.719Z,84.71
2024-03-03T08:26:26.515Z,84.07
2024-03-03T08:29:28.219Z,84.19
2024-03-03T08:32:30.046Z,83.34
2024-03-03T08:35:31.846Z,82.58
2024-03-03T08:38:35.211Z,82.42
2024-03-03T08:41:38.611Z,82.77
2024-03-03T08:44:40.438Z,83.59
2024-03-03T08:47:42.235Z,82.57
2024-03-03T08:50:44.027Z,82.43
2024-03-03T08:53:45.697Z,83.04
2024-03-03T08:56:47.468Z,82.82
2024-03-03T08:59:49.177Z,83.28
2024-03-03T09:02:50.880Z,82.80
2024-03-03T09:05:52.537Z,81.11
2024-03-03T09:08:54.260Z,81.27
2024-03-03T09:11:55.908Z,82.00
2024-03-03T09:14:57.758Z,81.59
2024-03-03T09:17:59.671Z,82.17
2024-03-03T09:21:01.390Z,81.78
2024-03-03T09:24:07.084Z,81.99
2024-03-03T09:27:13.064Z,82.27
2024-03-03T09:30:14.975Z,82.60
2024-03-03T09:33:16.770Z,82.65
2024-03-03T09:36:18.597Z,82.56
2024-03-03T09:39:20.664Z,82.57
2024-03-03T09:42:22.328Z,82.23
2024-03-03T09:45:27.855Z,81.87
2024-03-03T09:48:30.164Z,81.63
2024-03-03T09:51:32.496Z,81.31
2024-03-03T09:54:34.355Z,82.03
2024-03-03T09:57:37.364Z,81.91
2024-03-03T10:00:39.696Z,81.43
2024-03-03T10:03:42.550Z,80.99
2024-03-03T10:06:45.798Z,78.91
2024-03-03T10:09:51.515Z,79.01
2024-03-03T10:12:55.239Z,79.53
2024-03-03T10:16:00.741Z,79.93
2024-03-03T10:19:04.452Z,78.76
2024-03-03T10:22:10.725Z,78.74
2024-03-03T10:25:17.355Z,78.85
2024-03-03T10:28:19.274Z,77.44
2024-03-03T10:31:22.063Z,77.58
2024-03-03T10:34:24.419Z,76.01
2024-03-03T10:37:26.334Z,74.50
2024-03-03T10:40:28.935Z,74.76
2024-03-03T10:43:30.663Z,67.39
2024-03-03T10:46:32.460Z,67.63
2024-03-03T10:49:34.102Z,66.31
2024-03-03T10:52:40.605Z,64.70
2024-03-03T10:55:45.253Z,63.92
2024-03-03T10:58:48.831Z,64.82
2024-03-03T11:01:51.002Z,65.84
2024-03-03T11:04:53.694Z,65.58
2024-03-03T11:07:55.862Z,68.96
2024-03-03T11:11:04.156Z,68.96
2024-03-03T11:14:12.827Z,69.81
2024-03-03T11:17:21.819Z,67.22
2024-03-03T11:20:25.314Z,64.61
2024-03-03T11:23:33.088Z,64.89
2024-03-03T11:26:51.176Z,65.61
2024-03-03T11:29:53.228Z,66.20
2024-03-03T11:32:56.405Z,64.85
2024-03-03T11:35:58.601Z,65.37
2024-03-03T11:39:15.021Z,67.57
2024-03-03T11:42:39.306Z,68.49
2024-03-03T11:45:49.318Z,68.82
2024-03-03T11:48:57.482Z,68.29
2024-03-03T11:51:59.492Z,66.03
2024-03-03T11:55:01.295Z,66.15
2024-03-03T11:58:05.550Z,62.64
2024-03-03T12:01:13.786Z,60.95
2024-03-03T12:04:16.432Z,57.19
2024-03-03T12:07:19.996Z,56.06
2024-03-03T12:10:26.175Z,55.80
2024-03-03T12:13:29.166Z,57.22
2024-03-03T12:16:32.682Z,54.95
2024-03-03T12:19:35.458Z,55.43
2024-03-03T12:22:37.509Z,53.07
2024-03-03T12:25:39.520Z,55.90
2024-03-03T12:28:41.897Z,55.47
2024-03-03T12:31:43.640Z,55.73
2024-03-03T12:34:45.319Z,56.91
2024-03-03T12:37:47.276Z,56.24
2024-03-03T12:40:49.380Z,54.22
2024-03-03T12:43:55.499Z,53.32
2024-03-03T12:46:57.121Z,52.30
2024-03-03T12:49:58.776Z,53.21
2024-03-03T12:53:00.832Z,53.27
2024-03-03T12:56:20.278Z,51.43
2024-03-03T12:59:22.057Z,54.80
2024-03-03T13:02:23.956Z,54.10
2024-03-03T13:05:25.888Z,55.21
2024-03-03T13:08:27.564Z,55.60
2024-03-03T13:11:29.281Z,56.15
2024-03-03T13:14:33.754Z,55.83
2024-03-03T13:17:35.448Z,55.49
2024-03-03T13:20:38.083Z,54.34
2024-03-03T13:23:39.836Z,54.56
2024-03-03T13:26:42.745Z,53.49
2024-03-03T13:29:44.483Z,52.21
2024-03-03T13:32:46.259Z,52.48
2024-03-03T13:35:47.984Z,50.80
2024-03-03T13:38:49.694Z,50.19
2024-03-03T13:41:51.459Z,49.89
2024-03-03T13:44:53.101Z,49.90
2024-03-03T13:47:54.813Z,50.21
2024-03-03T13:50:56.675Z,49.11
2024-03-03T13:53:58.598Z,47.78
2024-03-03T13:57:02.240Z,49.59
2024-03-03T14:00:10.463Z,48.48
2024-03-03T14:03:13.871Z,49.00
2024-03-03T14:06:15.574Z,49.15
2024-03-03T14:09:17.338Z,49.47
2024-03-03T14:12:18.976Z,48.04
2024-03-03T14:15:20.917Z,48.84
2024-03-03T14:18:22.569Z,47.70
2024-03-03T14:21:28.600Z,47.93
2024-03-03T14:24:30.249Z,45.86
2024-03-03T14:27:31.961Z,46.53
2024-03-03T14:30:33.587Z,46.51
2024-03-03T14:33:35.217Z,44.27
2024-03-03T14:36:37.043Z,44.52
2024-03-03T14:39:38.906Z,42.75
2024-03-03T14:42:41.610Z,42.71
2024-03-03T14:45:43.229Z,40.52
2024-03-03T14:48:45.637Z,37.08
2024-03-03T14:51:47.358Z,25.04
2024-03-03T14:54:49.130Z,26.01
2024-03-03T14:57:50.915Z,26.01
2024-03-03T15:00:55.563Z,25.17
2024-03-03T15:03:57.539Z,25.05
2024-03-03T15:06:59.310Z,25.09
2024-03-03T15:10:01.077Z,25.06
2024-03-03T15:13:06.226Z,26.49
2024-03-03T15:16:08.826Z,27.20
2024-03-03T15:19:10.554Z,27.55
2024-03-03T15:22:12.438Z,25.76
2024-03-03T15:25:14.295Z,26.76
2024-03-03T15:28:15.993Z,28.24
2024-03-03T15:31:17.780Z,26.66
2024-03-03T15:34:19.532Z,26.24
2024-03-03T15:37:21.260Z,26.28
2024-03-03T15:40:25.522Z,26.93
2024-03-03T15:43:27.272Z,27.30
2024-03-03T15:46:29.188Z,26.30
2024-03-03T15:49:30.933Z,26.30
2024-03-03T15:52:34.387Z,27.12
2024-03-03T15:55:39.083Z,27.35
2024-03-03T15:58:41.247Z,27.96
2024-03-03T16:01:42.933Z,27.95
2024-03-03T16:04:44.702Z,27.54
2024-03-03T16:07:47.217Z,26.79
2024-03-03T16:10:54.083Z,27.48
2024-03-03T16:13:55.940Z,27.76
2024-03-03T16:16:58.000Z,28.60
2024-03-03T16:20:00.161Z,28.52
2024-03-03T16:23:01.875Z,28.95
2024-03-03T16:26:03.689Z,29.42
2024-03-03T16:29:05.518Z,28.99
2024-03-03T16:32:07.365Z,28.46
2024-03-03T16:35:09.217Z,29.08
2024-03-03T16:38:11.844Z,28.57
2024-03-03T16:41:13.616Z,29.23
2024-03-03T16:44:15.290Z,30.27
2024-03-03T16:47:17.069Z,32.90
2024-03-03T16:50:19.018Z,30.89
2024-03-03T16:53:23.129Z,33.09
2024-03-03T16:56:24.877Z,33.08
2024-03-03T16:59:26.605Z,32.57
2024-03-03T17:02:28.329Z,32.86
2024-03-03T17:05:29.997Z,33.45
2024-03-03T17:08:32.389Z,32.96
2024-03-03T17:11:34.113Z,33.58
2024-03-03T17:14:35.852Z,33.20
2024-03-03T17:17:38.281Z,33.97
2024-03-03T17:20:40.058Z,34.62
2024-03-03T17:23:41.767Z,35.22
2024-03-03T17:26:43.493Z,36.17
2024-03-03T17:29:46.819Z,35.67
2024-03-03T17:32:48.549Z,35.43
2024-03-03T17:35:50.926Z,37.40
2024-03-03T17:38:52.589Z,37.02
2024-03-03T17:41:54.301Z,36.39
2024-03-03T17:44:55.952Z,40.10
2024-03-03T17:47:57.775Z,40.36
2024-03-03T17:50:59.459Z,39.42
2024-03-03T17:54:01.247Z,38.86
2024-03-03T17:57:03.564Z,39.93
2024-03-03T18:00:06.012Z,41.05
2024-03-03T18:03:14.265Z,41.45
2024-03-03T18:06:17.079Z,42.04
2024-03-03T18:09:18.916Z,41.82
2024-03-03T18:12:21.921Z,42.87
2024-03-03T18:15:25.279Z,42.48
2024-03-03T18:18:27.166Z,45.29
2024-03-03T18:21:28.978Z,41.96
2024-03-03T18:24:32.627Z,44.43
2024-03-03T18:27:34.249Z,43.79
2024-03-03T18:30:36.120Z,43.03
2024-03-03T18:33:38.449Z,45.28
2024-03-03T18:36:40.772Z,45.52
2024-03-03T18:39:43.146Z,45.21
2024-03-03T18:42:48.770Z,45.63
2024-03-03T18:45:50.492Z,48.07
2024-03-03T18:48:52.914Z,47.07
2024-03-03T18:51:58.394Z,47.08
2024-03-03T18:55:00.451Z,49.30
2024-03-03T18:58:02.724Z,49.31
2024-03-03T19:01:04.653Z,48.98
2024-03-03T19:04:06.448Z,49.80
2024-03-03T19:07:16.292Z,48.25
2024-03-03T19:10:18.230Z,47.90
2024-03-03T19:13:19.998Z,49.84
2024-03-03T19:16:21.871Z,50.81
2024-03-03T19:19:23.616Z,49.94
2024-03-03T19:22:25.290Z,51.20
2024-03-03T19:25:29.204Z,49.74
2024-03-03T19:28:31.649Z,49.24
2024-03-03T19:31:33.472Z,50.01
2024-03-03T19:34:41.216Z,50.39
2024-03-03T19:37:43.284Z,51.28
2024-03-03T19:40:45.216Z,50.19
2024-03-03T19:43:49.145Z,51.56
2024-03-03T19:46:50.801Z,49.63
2024-03-03T19:49:53.505Z,52.27
2024-03-03T19:52:55.355Z,50.84
2024-03-03T19:55:57.072Z,51.07
2024-03-03T19:58:58.773Z,50.13
2024-03-03T20:02:00.831Z,49.62
2024-03-03T20:05:05.843Z,49.53
2024-03-03T20:08:08.540Z,50.16
2024-03-03T20:11:11.692Z,52.88
2024-03-03T20:14:13.514Z,53.82
2024-03-03T20:17:16.835Z,54.63
2024-03-03T20:20:18.628Z,52.50
2024-03-03T20:23:20.385Z,52.65
2024-03-03T20:26:22.035Z,52.64
2024-03-03T20:29:24.106Z,54.83
2024-03-03T20:32:26.022Z,54.91
2024-03-03T20:35:27.706Z,54.84
2024-03-03T20:38:29.381Z,55.14
2024-03-03T20:41:32.204Z,55.28
2024-03-03T20:44:33.847Z,54.62
2024-03-03T20:47:38.624Z,54.62
2024-03-03T20:50:40.359Z,54.97
2024-03-03T20:53:42.259Z,55.01
2024-03-03T20:56:43.990Z,56.76
2024-03-03T20:59:47.455Z,57.12
2024-03-03T21:02:55.087Z,57.01
2024-03-03T21:05:57.085Z,56.90
2024-03-03T21:08:59.414Z,57.11
2024-03-03T21:12:01.169Z,57.97
2024-03-03T21:15:04.287Z,57.82
2024-03-03T21:18:06.018Z,58.68
2024-03-03T21:21:08.398Z,58.74
2024-03-03T21:24:10.121Z,59.58
2024-03-03T21:27:11.908Z,59.31
2024-03-03T21:30:13.809Z,59.65
2024-03-03T21:33:15.733Z,60.16
2024-03-03T21:36:17.475Z,60.72
2024-03-03T21:39:19.176Z,60.89
2024-03-03T21:42:20.972Z,60.12
2024-03-03T21:45:22.610Z,60.11
2024-03-03T21:48:24.530Z,60.45
2024-03-03T21:51:28.822Z,60.64
2024-03-03T21:54:31.657Z,60.11
2024-03-03T21:57:33.414Z,59.61
2024-03-03T22:00:35.059Z,59.96
2024-03-03T22:03:36.775Z,60.38
2024-03-03T22:06:38.452Z,60.86
2024-03-03T22:09:40.889Z,61.93
2024-03-03T22:12:42.568Z,62.04
2024-03-03T22:15:44.256Z,62.85
2024-03-03T22:18:47.076Z,63.04
2024-03-03T22:21:49.146Z,63.31
2024-03-03T22:24:50.773Z,63.43
2024-03-03T22:27:52.555Z,63.74
2024-03-03T22:30:57.524Z,64.16
2024-03-03T22:33:59.318Z,64.88
2024-03-03T22:37:01.088Z,65.03
2024-03-03T22:40:05.123Z,64.63
2024-03-03T22:43:07.140Z,64.68
2024-03-03T22:46:08.964Z,64.83
2024-03-03T22:49:10.727Z,65.09
2024-03-03T22:52:12.885Z,65.53
2024-03-03T22:55:14.741Z,65.66
2024-03-03T22:58:16.483Z,65.80
2024-03-03T23:01:18.302Z,66.34
2024-03-03T23:04:20.078Z,66.20
2024-03-03T23:07:21.949Z,65.82
2024-03-03T23:10:25.529Z,64.92
2024-03-03T23:13:27.477Z,65.35
2024-03-03T23:16:29.353Z,65.77
2024-03-03T23:19:31.474Z,65.74
2024-03-03T23:22:33.205Z,65.49
2024-03-03T23:25:35.238Z,64.87
2024-03-03T23:28:37.069Z,63.90
2024-03-03T23:31:38.777Z,63.77
2024-03-03T23:34:40.490Z,64.02
2024-03-03T23:37:42.444Z,64.18
2024-03-03T23:40:44.280Z,64.97
2024-03-03T23:43:46.028Z,65.78
2024-03-03T23:46:47.730Z,66.35
2024-03-03T23:49:49.683Z,65.97
2024-03-03T23:52:52.407Z,66.59
2024-03-03T23:55:55.717Z,66.53
2024-03-03T23:58:57.373Z,66.31
